^^
Datos históricos de la estación: Murcia-Puente Tocinos
Diario Informe para Febrero 15, 2019 Unidades:  Métrico    Inglés   Ambas
Diario Semanal Mensual Anual Configurable
  Máximo: Mínimo: Media:
Temperatura: 15.5 °C 10.9 °C 12.6 °C
Punto de rocio: 9.3 °C 5.8 °C 7.8 °C
Humedad: 82% 62% 73%
Velocidad viento: 14.8km/h 0.0km/h 6.1km/h
Racha viento: 27.8km/h - -
Viento- - ESE
Presión: 1030.0 hPa 1025.7 hPa -
Precipitación: 0.0 mm    
Historical Graphs
 
 
Tabla de datos para Febrero 15, 2019
Hora Temperatura Punto de rocio Presión Viento Velocidad viento Racha viento Humedad Intensidad lluvia(por hora) Nubes
00:00 11.4 °C 7.9 °C 1030.0 hPa Calm     79% 0.0 mm CLR
00:05 11.4 °C 7.7 °C 1029.9 hPa Calm     78% 0.0 mm CLR
00:10 11.4 °C 7.7 °C 1029.9 hPa Calm     78% 0.0 mm CLR
00:15 11.5 °C 7.8 °C 1029.9 hPa Calm     78% 0.0 mm CLR
00:20 11.5 °C 7.8 °C 1029.9 hPa Calm     78% 0.0 mm CLR
00:25 11.6 °C 7.9 °C 1029.9 hPa Calm     78% 0.0 mm CLR
00:30 11.6 °C 7.9 °C 1029.9 hPa Calm     78% 0.0 mm CLR
00:35 11.6 °C 7.9 °C 1029.7 hPa Calm     78% 0.0 mm CLR
00:40 11.7 °C 8.0 °C 1029.7 hPa Calm     78% 0.0 mm CLR
00:45 11.7 °C 8.0 °C 1029.7 hPa Calm     78% 0.0 mm CLR
00:50 11.7 °C 8.0 °C 1029.8 hPa Calm     78% 0.0 mm CLR
00:55 11.7 °C 7.8 °C 1029.8 hPa Calm     77% 0.0 mm CLR
01:00 11.7 °C 8.0 °C 1029.8 hPa Calm   4.8 km/h 78% 0.0 mm CLR
01:05 11.7 °C 7.8 °C 1029.7 hPa Calm   7.4 km/h 77% 0.0 mm CLR
01:10 11.7 °C 7.8 °C 1029.7 hPa NE 2.9 km/h   77% 0.0 mm CLR
01:15 11.7 °C 8.0 °C 1029.7 hPa NE 2.9 km/h   78% 0.0 mm CLR
01:20 11.7 °C 8.0 °C 1029.6 hPa Calm     78% 0.0 mm CLR
01:25 11.7 °C 8.0 °C 1029.6 hPa Calm     78% 0.0 mm CLR
01:30 11.7 °C 7.8 °C 1029.6 hPa Calm     77% 0.0 mm CLR
01:35 11.8 °C 7.9 °C 1029.5 hPa Calm     77% 0.0 mm CLR
01:40 11.8 °C 7.9 °C 1029.5 hPa Calm     77% 0.0 mm CLR
01:45 11.8 °C 7.9 °C 1029.5 hPa Calm     77% 0.0 mm CLR
01:50 11.8 °C 7.9 °C 1029.4 hPa Calm     77% 0.0 mm CLR
01:55 11.8 °C 7.9 °C 1029.4 hPa Calm   5.6 km/h 77% 0.0 mm CLR
02:00 11.8 °C 7.9 °C 1029.4 hPa ENE 3.2 km/h 8.0 km/h 77% 0.0 mm CLR
02:05 11.7 °C 7.8 °C 1029.4 hPa ENE 2.9 km/h 3.7 km/h 77% 0.0 mm CLR
02:10 11.7 °C 7.8 °C 1029.4 hPa ENE 3.2 km/h 5.6 km/h 77% 0.0 mm CLR
02:15 11.7 °C 7.8 °C 1029.4 hPa ENE 3.2 km/h 3.2 km/h 77% 0.0 mm CLR
02:20 11.7 °C 7.8 °C 1029.2 hPa ENE 2.3 km/h   77% 0.0 mm CLR
02:25 11.7 °C 7.8 °C 1029.2 hPa East 2.3 km/h 6.4 km/h 77% 0.0 mm CLR
02:30 11.6 °C 7.9 °C 1029.2 hPa East 2.9 km/h 5.6 km/h 78% 0.0 mm CLR
02:35 11.6 °C 7.9 °C 1029.2 hPa East 2.9 km/h 3.7 km/h 78% 0.0 mm CLR
02:40 11.6 °C 7.9 °C 1029.2 hPa East 3.9 km/h 3.7 km/h 78% 0.0 mm CLR
02:45 11.5 °C 7.8 °C 1029.2 hPa East 3.9 km/h 5.6 km/h 78% 0.0 mm CLR
02:50 11.5 °C 7.8 °C 1029.2 hPa East 2.9 km/h 3.7 km/h 78% 0.0 mm CLR
02:55 11.5 °C 7.8 °C 1029.2 hPa East 2.9 km/h 3.7 km/h 78% 0.0 mm CLR
03:00 11.5 °C 7.8 °C 1029.2 hPa East 3.2 km/h 4.8 km/h 78% 0.0 mm CLR
03:05 11.6 °C 7.9 °C 1029.1 hPa East 2.9 km/h 5.6 km/h 78% 0.0 mm CLR
03:10 11.6 °C 7.9 °C 1029.1 hPa East 3.2 km/h 3.7 km/h 78% 0.0 mm CLR
03:15 11.6 °C 7.9 °C 1029.1 hPa East 3.2 km/h 3.7 km/h 78% 0.0 mm CLR
03:20 11.6 °C 7.7 °C 1029.0 hPa East 2.3 km/h 3.7 km/h 77% 0.0 mm CLR
03:25 11.6 °C 7.7 °C 1029.0 hPa East 2.3 km/h   77% 0.0 mm CLR
03:30 11.6 °C 7.7 °C 1029.0 hPa Calm     77% 0.0 mm CLR
03:35 11.6 °C 7.7 °C 1028.9 hPa Calm     77% 0.0 mm CLR
03:40 11.6 °C 7.7 °C 1028.9 hPa Calm     77% 0.0 mm CLR
03:45 11.6 °C 7.7 °C 1028.9 hPa Calm     77% 0.0 mm CLR
03:50 11.6 °C 7.7 °C 1028.8 hPa Calm     77% 0.0 mm CLR
03:55 11.5 °C 7.6 °C 1028.8 hPa Calm     77% 0.0 mm CLR
04:00 11.5 °C 7.6 °C 1028.8 hPa Calm     77% 0.0 mm CLR
04:05 11.5 °C 7.6 °C 1028.7 hPa Calm     77% 0.0 mm CLR
04:10 11.5 °C 7.6 °C 1028.7 hPa Calm     77% 0.0 mm CLR
04:15 11.5 °C 7.6 °C 1028.7 hPa Calm     77% 0.0 mm CLR
04:20 11.5 °C 7.6 °C 1028.4 hPa Calm     77% 0.0 mm CLR
04:25 11.5 °C 7.6 °C 1028.4 hPa Calm     77% 0.0 mm CLR
04:30 11.5 °C 7.6 °C 1028.4 hPa Calm     77% 0.0 mm CLR
04:35 11.5 °C 7.6 °C 1028.4 hPa Calm     77% 0.0 mm CLR
04:40 11.6 °C 7.7 °C 1028.4 hPa Calm     77% 0.0 mm CLR
04:45 11.6 °C 7.7 °C 1028.4 hPa Calm     77% 0.0 mm CLR
04:50 11.6 °C 7.7 °C 1028.2 hPa Calm     77% 0.0 mm CLR
04:55 11.6 °C 7.7 °C 1028.2 hPa Calm   5.0 km/h 77% 0.0 mm CLR
05:00 11.6 °C 7.7 °C 1028.2 hPa NE 3.2 km/h 6.4 km/h 77% 0.0 mm CLR
05:05 11.6 °C 7.5 °C 1028.3 hPa WNW 2.9 km/h 5.6 km/h 76% 0.0 mm CLR
05:10 11.5 °C 7.4 °C 1028.3 hPa WNW 3.2 km/h 3.7 km/h 76% 0.0 mm CLR
05:15 11.5 °C 7.4 °C 1028.3 hPa WNW 3.2 km/h 3.7 km/h 76% 0.0 mm CLR
05:20 11.4 °C 7.3 °C 1028.2 hPa WNW 2.9 km/h 4.7 km/h 76% 0.0 mm CLR
05:25 11.3 °C 7.2 °C 1028.2 hPa NE 2.9 km/h 7.4 km/h 76% 0.0 mm CLR
05:30 11.3 °C 7.0 °C 1028.2 hPa NE 3.9 km/h 5.8 km/h 75% 0.0 mm CLR
05:35 11.3 °C 7.0 °C 1028.3 hPa NE 3.9 km/h 3.7 km/h 75% 0.0 mm CLR
05:40 11.3 °C 7.0 °C 1028.3 hPa NNE 2.9 km/h 5.6 km/h 75% 0.0 mm CLR
05:45 11.3 °C 7.0 °C 1028.3 hPa NNE 2.9 km/h 3.7 km/h 75% 0.0 mm CLR
05:50 11.3 °C 6.8 °C 1028.2 hPa NW 2.3 km/h 7.4 km/h 74% 0.0 mm CLR
05:55 11.3 °C 6.8 °C 1028.2 hPa North 2.3 km/h   74% 0.0 mm CLR
06:00 11.2 °C 6.7 °C 1028.2 hPa North 3.2 km/h   74% 0.0 mm CLR
06:05 11.3 °C 6.8 °C 1028.2 hPa North 2.9 km/h   74% 0.0 mm CLR
06:10 11.3 °C 6.8 °C 1028.2 hPa Calm     74% 0.0 mm CLR
06:15 11.3 °C 6.8 °C 1028.2 hPa Calm     74% 0.0 mm CLR
06:20 11.3 °C 6.6 °C 1028.2 hPa Calm     73% 0.0 mm CLR
06:25 11.2 °C 6.6 °C 1028.2 hPa Calm     73% 0.0 mm CLR
06:30 11.2 °C 6.6 °C 1028.2 hPa Calm     73% 0.0 mm CLR
06:35 11.2 °C 6.6 °C 1028.1 hPa Calm     73% 0.0 mm CLR
06:40 11.2 °C 6.6 °C 1028.1 hPa Calm     73% 0.0 mm CLR
06:45 11.1 °C 6.4 °C 1028.1 hPa Calm   7.4 km/h 73% 0.0 mm CLR
06:50 11.1 °C 6.4 °C 1028.3 hPa NNE 2.3 km/h 7.4 km/h 73% 0.0 mm CLR
06:55 11.1 °C 6.4 °C 1028.3 hPa NE 2.3 km/h 7.4 km/h 73% 0.0 mm CLR
07:00 11.1 °C 6.4 °C 1028.3 hPa NE 3.2 km/h 9.7 km/h 73% 0.0 mm CLR
07:05 11.1 °C 6.4 °C 1028.4 hPa NNE 4.7 km/h 11.1 km/h 73% 0.0 mm CLR
07:10 11.1 °C 6.4 °C 1028.4 hPa NNE 6.4 km/h 8.4 km/h 73% 0.0 mm CLR
07:15 11.1 °C 6.4 °C 1028.4 hPa NNE 6.4 km/h 7.4 km/h 73% 0.0 mm CLR
07:20 11.0 °C 6.2 °C 1028.4 hPa NNE 5.8 km/h 7.6 km/h 72% 0.0 mm CLR
07:25 11.0 °C 6.2 °C 1028.4 hPa NNE 5.8 km/h 11.1 km/h 72% 0.0 mm CLR
07:30 11.0 °C 6.2 °C 1028.4 hPa North 6.9 km/h 11.1 km/h 72% 0.0 mm CLR
07:35 11.0 °C 6.2 °C 1028.4 hPa NNW 6.9 km/h 7.4 km/h 72% 0.0 mm CLR
07:40 10.9 °C 6.1 °C 1028.4 hPa NE 5.0 km/h 9.3 km/h 72% 0.0 mm CLR
07:45 10.9 °C 6.1 °C 1028.4 hPa North 5.0 km/h 10.3 km/h 72% 0.0 mm CLR
07:50 10.9 °C 6.1 °C 1028.4 hPa NW 5.0 km/h 12.2 km/h 72% 0.0 mm CLR
07:55 10.9 °C 6.1 °C 1028.4 hPa North 5.0 km/h 11.1 km/h 72% 0.0 mm CLR
08:00 10.9 °C 6.1 °C 1028.4 hPa NW 8.0 km/h 9.7 km/h 72% 0.0 mm CLR
08:05 10.9 °C 6.1 °C 1028.5 hPa NNW 6.9 km/h 9.3 km/h 72% 0.0 mm CLR
08:10 10.9 °C 5.8 °C 1028.5 hPa NW 5.8 km/h 7.4 km/h 71% 0.0 mm CLR
08:15 10.9 °C 5.8 °C 1028.5 hPa North 5.8 km/h 11.1 km/h 71% 0.0 mm CLR
08:20 10.9 °C 5.8 °C 1028.6 hPa NW 6.4 km/h 9.5 km/h 71% 0.0 mm CLR
08:25 11.0 °C 5.9 °C 1028.6 hPa NNW 6.4 km/h 11.1 km/h 71% 0.0 mm CLR
08:30 11.0 °C 5.9 °C 1028.6 hPa WNW 5.8 km/h 8.4 km/h 71% 0.0 mm CLR
08:35 11.0 °C 5.9 °C 1028.7 hPa WNW 5.8 km/h 12.2 km/h 71% 0.0 mm CLR
08:40 11.0 °C 5.9 °C 1028.7 hPa WNW 6.4 km/h 10.0 km/h 71% 0.0 mm CLR
08:45 10.9 °C 5.8 °C 1028.7 hPa NNW 6.4 km/h 14.8 km/h 71% 0.0 mm CLR
08:50 10.9 °C 5.8 °C 1028.9 hPa NW 8.4 km/h 13.0 km/h 71% 0.0 mm CLR
08:55 11.0 °C 5.9 °C 1028.9 hPa NNW 8.4 km/h 9.3 km/h 71% 0.0 mm CLR
09:00 11.0 °C 5.9 °C 1028.9 hPa North 8.0 km/h 9.7 km/h 71% 0.0 mm CLR
09:05 11.1 °C 6.1 °C 1029.1 hPa WNW 6.4 km/h 5.6 km/h 71% 0.0 mm CLR
09:10 11.1 °C 6.2 °C 1029.1 hPa WNW 3.9 km/h 5.6 km/h 72% 0.0 mm CLR
09:15 11.2 °C 6.1 °C 1029.1 hPa WNW 3.9 km/h 5.6 km/h 71% 0.0 mm CLR
09:20 11.2 °C 5.9 °C 1029.1 hPa NW 3.9 km/h 11.1 km/h 70% 0.0 mm CLR
09:25 11.3 °C 6.0 °C 1029.1 hPa NW 3.9 km/h 11.1 km/h 70% 0.0 mm CLR
09:30 11.3 °C 6.0 °C 1029.1 hPa North 5.8 km/h 7.4 km/h 70% 0.0 mm CLR
09:35 11.4 °C 6.1 °C 1029.2 hPa NNE 5.8 km/h 5.6 km/h 70% 0.0 mm CLR
09:40 11.5 °C 6.0 °C 1029.2 hPa NNE 3.2 km/h 9.5 km/h 69% 0.0 mm CLR
09:45 11.6 °C 6.1 °C 1029.2 hPa NE 3.2 km/h 3.7 km/h 69% 0.0 mm CLR
09:50 11.6 °C 5.9 °C 1029.3 hPa NNE 4.7 km/h 11.1 km/h 68% 0.0 mm CLR
09:55 11.6 °C 5.9 °C 1029.3 hPa North 4.7 km/h 5.6 km/h 68% 0.0 mm CLR
10:00 11.6 °C 5.9 °C 1029.3 hPa NNW 4.8 km/h 9.7 km/h 68% 0.0 mm CLR
10:05 11.7 °C 6.0 °C 1029.3 hPa NNW 5.0 km/h 7.6 km/h 68% 0.0 mm CLR
10:10 11.7 °C 6.0 °C 1029.3 hPa West 5.8 km/h 8.4 km/h 68% 0.0 mm CLR
10:15 11.8 °C 6.3 °C 1029.3 hPa NW 5.8 km/h 5.6 km/h 69% 0.0 mm CLR
10:20 11.8 °C 6.1 °C 1029.4 hPa East 5.0 km/h 6.4 km/h 68% 0.0 mm CLR
10:25 11.9 °C 6.2 °C 1029.4 hPa NE 5.0 km/h 3.7 km/h 68% 0.0 mm CLR
10:30 12.0 °C 6.3 °C 1029.4 hPa NE 3.9 km/h 3.7 km/h 68% 0.0 mm CLR
10:35 12.1 °C 6.2 °C 1029.4 hPa NNE 3.9 km/h 7.4 km/h 67% 0.0 mm CLR
10:40 12.1 °C 6.2 °C 1029.4 hPa NNE 2.9 km/h 3.7 km/h 67% 0.0 mm CLR
10:45 12.2 °C 6.2 °C 1029.4 hPa NNE 2.9 km/h 1.9 km/h 67% 0.0 mm CLR
10:50 12.3 °C 6.3 °C 1029.3 hPa NE 2.3 km/h 7.4 km/h 67% 0.0 mm CLR
10:55 12.4 °C 6.4 °C 1029.3 hPa NE 2.3 km/h   67% 0.0 mm CLR
11:00 12.4 °C 6.4 °C 1029.3 hPa NE 1.6 km/h 3.2 km/h 67% 0.0 mm CLR
11:05 12.6 °C 6.6 °C 1029.4 hPa NE 2.3 km/h 7.4 km/h 67% 0.0 mm CLR
11:10 12.7 °C 6.7 °C 1029.4 hPa WNW 3.2 km/h 5.8 km/h 67% 0.0 mm CLR
11:15 12.8 °C 6.6 °C 1029.4 hPa NNE 3.2 km/h 8.7 km/h 66% 0.0 mm CLR
11:20 12.8 °C 6.6 °C 1029.4 hPa NNW 3.2 km/h 7.4 km/h 66% 0.0 mm CLR
11:25 12.9 °C 6.7 °C 1029.4 hPa NNW 3.2 km/h 11.1 km/h 66% 0.0 mm CLR
11:30 12.8 °C 6.6 °C 1029.4 hPa East 5.0 km/h 7.4 km/h 66% 0.0 mm CLR
11:35 12.8 °C 6.8 °C 1029.4 hPa NE 5.0 km/h 7.4 km/h 67% 0.0 mm CLR
11:40 12.8 °C 6.8 °C 1029.4 hPa NE 5.0 km/h   67% 0.0 mm CLR
11:45 12.9 °C 6.9 °C 1029.4 hPa North 5.0 km/h 7.4 km/h 67% 0.0 mm CLR
11:50 13.1 °C 7.1 °C 1029.3 hPa WNW 2.9 km/h 9.3 km/h 67% 0.0 mm CLR
11:55 13.1 °C 7.1 °C 1029.3 hPa WNW 2.9 km/h 7.4 km/h 67% 0.0 mm CLR
12:00 13.1 °C 7.1 °C 1029.3 hPa WNW 3.2 km/h 8.0 km/h 67% 0.0 mm CLR
12:05 13.2 °C 7.4 °C 1029.3 hPa ENE 4.7 km/h 16.7 km/h 68% 0.0 mm CLR
12:10 13.2 °C 7.4 °C 1029.3 hPa NE 6.4 km/h 11.9 km/h 68% 0.0 mm CLR
12:15 13.2 °C 7.4 °C 1029.3 hPa ENE 6.4 km/h 13.7 km/h 68% 0.0 mm CLR
12:20 13.1 °C 7.3 °C 1029.2 hPa NNW 8.7 km/h 9.3 km/h 68% 0.0 mm CLR
12:25 13.2 °C 7.4 °C 1029.2 hPa NE 8.7 km/h 7.4 km/h 68% 0.0 mm CLR
12:30 13.2 °C 7.2 °C 1029.2 hPa North 5.0 km/h 11.9 km/h 67% 0.0 mm CLR
12:35 13.2 °C 7.4 °C 1029.0 hPa NNW 5.0 km/h 9.3 km/h 68% 0.0 mm CLR
12:40 13.3 °C 7.5 °C 1029.0 hPa NNE 6.9 km/h 14.8 km/h 68% 0.0 mm CLR
12:45 13.3 °C 7.5 °C 1029.0 hPa NNE 6.9 km/h 7.4 km/h 68% 0.0 mm CLR
12:50 13.3 °C 7.3 °C 1028.7 hPa NE 6.4 km/h 9.3 km/h 67% 0.0 mm CLR
12:55 13.4 °C 7.4 °C 1028.7 hPa NE 6.4 km/h 11.1 km/h 67% 0.0 mm CLR
13:00 13.4 °C 7.4 °C 1028.7 hPa NE 4.8 km/h 11.3 km/h 67% 0.0 mm CLR
13:05 13.5 °C 7.5 °C 1028.4 hPa NNW 5.8 km/h 7.4 km/h 67% 0.0 mm CLR
13:10 13.7 °C 7.7 °C 1028.4 hPa ENE 3.9 km/h 3.7 km/h 67% 0.0 mm CLR
13:15 13.8 °C 7.6 °C 1028.4 hPa NW 3.9 km/h 7.4 km/h 66% 0.0 mm CLR
13:20 13.9 °C 7.7 °C 1028.1 hPa NNE 4.7 km/h 7.4 km/h 66% 0.0 mm CLR
13:25 14.1 °C 7.6 °C 1028.1 hPa NNW 4.7 km/h 7.4 km/h 65% 0.0 mm CLR
13:30 14.1 °C 7.6 °C 1028.1 hPa North 3.9 km/h 11.1 km/h 65% 0.0 mm CLR
13:35 14.2 °C 7.7 °C 1027.9 hPa NE 3.9 km/h 13.0 km/h 65% 0.0 mm CLR
13:40 14.2 °C 7.7 °C 1027.9 hPa NNE 8.4 km/h 13.0 km/h 65% 0.0 mm CLR
13:45 14.0 °C 7.5 °C 1027.9 hPa NE 8.4 km/h 13.7 km/h 65% 0.0 mm CLR
13:50 14.1 °C 7.6 °C 1027.5 hPa NNE 6.9 km/h 13.0 km/h 65% 0.0 mm CLR
13:55 14.1 °C 7.6 °C 1027.5 hPa East 6.9 km/h 11.1 km/h 65% 0.0 mm CLR
14:00 14.2 °C 7.7 °C 1027.5 hPa NE 9.7 km/h 20.9 km/h 65% 0.0 mm CLR
14:05 14.4 °C 7.9 °C 1027.2 hPa NNE 9.5 km/h 11.1 km/h 65% 0.0 mm CLR
14:10 14.4 °C 7.7 °C 1027.2 hPa NNE 6.9 km/h 7.6 km/h 64% 0.0 mm CLR
14:15 14.4 °C 7.7 °C 1027.2 hPa NNE 6.9 km/h 14.8 km/h 64% 0.0 mm CLR
14:20 14.4 °C 7.9 °C 1027.0 hPa North 7.6 km/h 11.1 km/h 65% 0.0 mm CLR
14:25 14.4 °C 7.9 °C 1027.0 hPa NE 7.6 km/h 11.1 km/h 65% 0.0 mm CLR
14:30 14.7 °C 7.7 °C 1027.0 hPa ESE 6.4 km/h 18.5 km/h 63% 0.0 mm CLR
14:35 14.9 °C 8.2 °C 1026.6 hPa ENE 6.4 km/h 14.8 km/h 64% 0.0 mm CLR
14:40 15.2 °C 8.2 °C 1026.6 hPa NE 8.7 km/h 22.2 km/h 63% 0.0 mm CLR
14:45 15.3 °C 8.1 °C 1026.6 hPa NNE 8.7 km/h 14.8 km/h 62% 0.0 mm CLR
14:50 15.4 °C 8.4 °C 1026.4 hPa NNE 9.5 km/h 22.2 km/h 63% 0.0 mm CLR
14:55 15.3 °C 8.3 °C 1026.4 hPa NNE 9.5 km/h 20.4 km/h 63% 0.0 mm CLR
15:00 15.1 °C 8.1 °C 1026.4 hPa NNE 12.9 km/h 24.1 km/h 63% 0.0 mm CLR
15:05 15.0 °C 8.2 °C 1026.2 hPa East 13.7 km/h 14.8 km/h 64% 0.0 mm CLR
15:10 15.2 °C 8.2 °C 1026.2 hPa NNW 13.7 km/h 20.4 km/h 63% 0.0 mm CLR
15:15 15.2 °C 8.2 °C 1026.2 hPa NNE 13.7 km/h 18.5 km/h 63% 0.0 mm CLR
15:20 15.2 °C 8.2 °C 1026.1 hPa NE 10.3 km/h 22.2 km/h 63% 0.0 mm CLR
15:25 15.1 °C 8.3 °C 1026.1 hPa NE 10.3 km/h 18.5 km/h 64% 0.0 mm CLR
15:30 15.2 °C 8.4 °C 1026.1 hPa ENE 12.2 km/h 22.2 km/h 64% 0.0 mm CLR
15:35 15.1 °C 8.1 °C 1025.9 hPa NE 12.2 km/h 27.8 km/h 63% 0.0 mm CLR
15:40 14.9 °C 8.4 °C 1025.9 hPa North 14.8 km/h 15.6 km/h 65% 0.0 mm CLR
15:45 15.1 °C 8.6 °C 1025.9 hPa East 14.8 km/h 20.4 km/h 65% 0.0 mm CLR
15:50 15.3 °C 8.5 °C 1025.8 hPa NE 10.3 km/h 20.4 km/h 64% 0.0 mm CLR
15:55 15.5 °C 8.7 °C 1025.8 hPa NNE 10.3 km/h 27.8 km/h 64% 0.0 mm CLR
16:00 15.3 °C 8.3 °C 1025.8 hPa NE 12.9 km/h 27.4 km/h 63% 0.0 mm CLR
16:05 15.0 °C 8.4 °C 1025.8 hPa NE 13.7 km/h 11.1 km/h 65% 0.0 mm CLR
16:10 15.2 °C 8.9 °C 1025.8 hPa NE 11.9 km/h 16.7 km/h 66% 0.0 mm CLR
16:15 15.4 °C 8.8 °C 1025.8 hPa East 11.9 km/h 22.2 km/h 65% 0.0 mm CLR
16:20 15.4 °C 8.8 °C 1025.7 hPa NE 12.2 km/h 16.7 km/h 65% 0.0 mm CLR
16:25 15.3 °C 8.8 °C 1025.7 hPa North 12.2 km/h 25.9 km/h 65% 0.0 mm CLR
16:30 14.9 °C 8.4 °C 1025.7 hPa NNE 11.9 km/h 18.5 km/h 65% 0.0 mm CLR
16:35 14.8 °C 8.5 °C 1025.7 hPa NNE 11.9 km/h 20.4 km/h 66% 0.0 mm CLR
16:40 14.9 °C 8.8 °C 1025.7 hPa ESE 11.9 km/h 16.7 km/h 67% 0.0 mm CLR
16:45 15.0 °C 8.7 °C 1025.7 hPa ESE 11.9 km/h 16.7 km/h 66% 0.0 mm CLR
16:50 14.9 °C 8.6 °C 1025.7 hPa ENE 11.1 km/h 14.8 km/h 66% 0.0 mm CLR
16:55 14.9 °C 8.8 °C 1025.7 hPa ESE 11.1 km/h 9.3 km/h 67% 0.0 mm CLR
17:00 14.9 °C 8.8 °C 1025.7 hPa ENE 9.7 km/h 20.9 km/h 67% 0.0 mm CLR
17:05 14.8 °C 8.9 °C 1025.7 hPa NE 9.5 km/h 16.7 km/h 68% 0.0 mm CLR
17:10 14.8 °C 8.7 °C 1025.7 hPa ENE 10.0 km/h 18.5 km/h 67% 0.0 mm CLR
17:15 14.6 °C 8.8 °C 1025.7 hPa East 10.0 km/h 13.0 km/h 68% 0.0 mm CLR
17:20 14.6 °C 8.8 °C 1025.8 hPa ENE 11.9 km/h 14.8 km/h 68% 0.0 mm CLR
17:25 14.6 °C 9.0 °C 1025.8 hPa NE 11.9 km/h 16.7 km/h 69% 0.0 mm CLR
17:30 14.6 °C 9.0 °C 1025.8 hPa ESE 10.0 km/h 13.0 km/h 69% 0.0 mm CLR
17:35 14.5 °C 8.7 °C 1025.8 hPa ENE 10.0 km/h 22.2 km/h 68% 0.0 mm CLR
17:40 14.4 °C 8.8 °C 1025.8 hPa ENE 10.0 km/h 19.0 km/h 69% 0.0 mm CLR
17:45 14.3 °C 8.9 °C 1025.8 hPa East 10.0 km/h 16.7 km/h 70% 0.0 mm CLR
17:50 14.2 °C 8.8 °C 1025.8 hPa East 9.5 km/h 20.4 km/h 70% 0.0 mm CLR
17:55 14.2 °C 8.8 °C 1025.8 hPa NE 9.5 km/h 22.2 km/h 70% 0.0 mm CLR
18:00 14.1 °C 8.7 °C 1025.8 hPa NE 12.9 km/h 24.1 km/h 70% 0.0 mm CLR
18:05 13.9 °C 8.7 °C 1025.8 hPa ENE 12.2 km/h 18.5 km/h 71% 0.0 mm CLR
18:10 13.8 °C 8.8 °C 1025.8 hPa NE 12.2 km/h 13.0 km/h 72% 0.0 mm CLR
18:15 13.8 °C 8.8 °C 1025.8 hPa NE 12.2 km/h 14.8 km/h 72% 0.0 mm CLR
18:20 13.7 °C 8.9 °C 1025.9 hPa ENE 10.0 km/h 15.6 km/h 73% 0.0 mm CLR
18:25 13.6 °C 8.8 °C 1025.9 hPa NNE 10.0 km/h 18.5 km/h 73% 0.0 mm CLR
18:30 13.6 °C 8.8 °C 1025.9 hPa NE 8.7 km/h 16.7 km/h 73% 0.0 mm CLR
18:35 13.6 °C 9.1 °C 1026.0 hPa East 8.7 km/h 16.4 km/h 74% 0.0 mm CLR
18:40 13.4 °C 8.8 °C 1026.0 hPa NE 9.5 km/h 14.8 km/h 74% 0.0 mm CLR
18:45 13.4 °C 9.1 °C 1026.0 hPa NNE 9.5 km/h 16.7 km/h 75% 0.0 mm CLR
18:50 13.4 °C 9.1 °C 1026.1 hPa NE 8.7 km/h 13.0 km/h 75% 0.0 mm CLR
18:55 13.3 °C 9.2 °C 1026.1 hPa ENE 8.7 km/h 18.5 km/h 76% 0.0 mm CLR
19:00 13.3 °C 9.2 °C 1026.1 hPa NE 9.7 km/h 14.5 km/h 76% 0.0 mm CLR
19:05 13.2 °C 9.3 °C 1026.3 hPa ENE 9.5 km/h 14.8 km/h 77% 0.0 mm CLR
19:10 13.2 °C 9.3 °C 1026.3 hPa NNE 10.0 km/h 13.0 km/h 77% 0.0 mm CLR
19:15 13.1 °C 9.2 °C 1026.3 hPa NNE 10.0 km/h 14.8 km/h 77% 0.0 mm CLR
19:20 13.0 °C 9.1 °C 1026.4 hPa NE 10.0 km/h 14.8 km/h 77% 0.0 mm CLR
19:25 13.0 °C 9.1 °C 1026.4 hPa NNE 10.0 km/h 14.8 km/h 77% 0.0 mm CLR
19:30 12.9 °C 8.9 °C 1026.4 hPa NE 10.0 km/h 13.0 km/h 77% 0.0 mm CLR
19:35 12.9 °C 9.2 °C 1026.4 hPa ENE 10.0 km/h 20.4 km/h 78% 0.0 mm CLR
19:40 12.9 °C 9.2 °C 1026.4 hPa ENE 10.0 km/h 14.8 km/h 78% 0.0 mm CLR
19:45 12.9 °C 9.2 °C 1026.4 hPa North 10.0 km/h 14.8 km/h 78% 0.0 mm CLR
19:50 12.9 °C 9.2 °C 1026.5 hPa NE 8.7 km/h 7.6 km/h 78% 0.0 mm CLR
19:55 12.9 °C 9.2 °C 1026.5 hPa NE 8.7 km/h 9.3 km/h 78% 0.0 mm CLR
20:00 12.9 °C 9.2 °C 1026.5 hPa NE 8.0 km/h 11.3 km/h 78% 0.0 mm CLR
20:05 12.9 °C 9.2 °C 1026.5 hPa ENE 6.9 km/h 13.0 km/h 78% 0.0 mm CLR
20:10 12.9 °C 9.2 °C 1026.5 hPa NE 7.6 km/h 14.8 km/h 78% 0.0 mm CLR
20:15 12.8 °C 9.1 °C 1026.5 hPa NE 7.6 km/h 11.1 km/h 78% 0.0 mm CLR
20:20 12.8 °C 9.1 °C 1026.6 hPa NE 9.5 km/h 14.8 km/h 78% 0.0 mm CLR
20:25 12.8 °C 8.9 °C 1026.6 hPa ENE 9.5 km/h 14.8 km/h 77% 0.0 mm CLR
20:30 12.9 °C 8.9 °C 1026.6 hPa NE 9.5 km/h 16.7 km/h 77% 0.0 mm CLR
20:35 12.9 °C 8.9 °C 1026.6 hPa NE 9.5 km/h 11.1 km/h 77% 0.0 mm CLR
20:40 12.9 °C 8.9 °C 1026.6 hPa NNE 8.4 km/h 14.8 km/h 77% 0.0 mm CLR
20:45 12.9 °C 9.2 °C 1026.6 hPa NE 8.4 km/h 14.8 km/h 78% 0.0 mm CLR
20:50 12.9 °C 9.2 °C 1026.6 hPa NE 10.3 km/h 13.0 km/h 78% 0.0 mm CLR
20:55 12.9 °C 9.2 °C 1026.6 hPa NE 10.3 km/h 11.1 km/h 78% 0.0 mm CLR
21:00 12.8 °C 9.1 °C 1026.6 hPa NE 9.7 km/h 16.1 km/h 78% 0.0 mm CLR
21:05 12.8 °C 9.1 °C 1026.8 hPa ENE 8.7 km/h 16.7 km/h 78% 0.0 mm CLR
21:10 12.8 °C 9.2 °C 1026.8 hPa NNE 8.7 km/h 14.0 km/h 79% 0.0 mm CLR
21:15 12.7 °C 9.2 °C 1026.8 hPa NNE 8.7 km/h 18.5 km/h 79% 0.0 mm CLR
21:20 12.7 °C 8.9 °C 1026.8 hPa NE 11.9 km/h 16.7 km/h 78% 0.0 mm CLR
21:25 12.7 °C 9.2 °C 1026.8 hPa NNE 11.9 km/h 14.8 km/h 79% 0.0 mm CLR
21:30 12.7 °C 9.2 °C 1026.8 hPa NNE 11.1 km/h 16.7 km/h 79% 0.0 mm CLR
21:35 12.6 °C 9.2 °C 1026.9 hPa NNE 11.1 km/h 16.7 km/h 80% 0.0 mm CLR
21:40 12.6 °C 9.2 °C 1026.9 hPa NNE 11.1 km/h 18.5 km/h 80% 0.0 mm CLR
21:45 12.5 °C 9.2 °C 1026.9 hPa NE 11.1 km/h 13.0 km/h 80% 0.0 mm CLR
21:50 12.4 °C 9.2 °C 1026.9 hPa North 12.2 km/h 16.4 km/h 81% 0.0 mm CLR
21:55 12.4 °C 9.2 °C 1026.9 hPa NE 12.2 km/h 13.0 km/h 81% 0.0 mm CLR
22:00 12.4 °C 9.2 °C 1026.9 hPa NNE 9.7 km/h 16.1 km/h 81% 0.0 mm CLR
22:05 12.4 °C 9.2 °C 1027.1 hPa North 10.0 km/h 14.0 km/h 81% 0.0 mm CLR
22:10 12.3 °C 9.1 °C 1027.1 hPa NNE 8.7 km/h 11.1 km/h 81% 0.0 mm CLR
22:15 12.3 °C 9.1 °C 1027.1 hPa NNE 8.7 km/h 16.7 km/h 81% 0.0 mm CLR
22:20 12.3 °C 9.1 °C 1027.3 hPa NE 8.7 km/h 16.7 km/h 81% 0.0 mm CLR
22:25 12.3 °C 9.1 °C 1027.3 hPa NNE 8.7 km/h 14.8 km/h 81% 0.0 mm CLR
22:30 12.3 °C 9.1 °C 1027.3 hPa NNE 10.3 km/h 16.7 km/h 81% 0.0 mm CLR
22:35 12.3 °C 9.1 °C 1027.2 hPa NNE 10.3 km/h 14.8 km/h 81% 0.0 mm CLR
22:40 12.3 °C 9.1 °C 1027.2 hPa North 10.3 km/h 16.7 km/h 81% 0.0 mm CLR
22:45 12.2 °C 9.1 °C 1027.2 hPa NE 10.3 km/h 18.5 km/h 81% 0.0 mm CLR
22:50 12.2 °C 9.1 °C 1027.3 hPa NE 11.1 km/h 11.1 km/h 81% 0.0 mm CLR
22:55 12.2 °C 9.2 °C 1027.3 hPa NE 11.1 km/h 16.4 km/h 82% 0.0 mm CLR
23:00 12.2 °C 9.2 °C 1027.3 hPa NNE 9.7 km/h 16.1 km/h 82% 0.0 mm CLR
23:05 12.2 °C 9.2 °C 1027.3 hPa NNE 8.7 km/h 14.8 km/h 82% 0.0 mm CLR
23:10 12.1 °C 9.1 °C 1027.3 hPa NNE 9.5 km/h 13.0 km/h 82% 0.0 mm CLR
23:15 12.1 °C 9.1 °C 1027.3 hPa NNE 9.5 km/h 13.0 km/h 82% 0.0 mm CLR
23:20 12.1 °C 9.1 °C 1027.2 hPa NNE 8.7 km/h 14.8 km/h 82% 0.0 mm CLR
23:25 12.1 °C 9.1 °C 1027.2 hPa NE 8.7 km/h 14.8 km/h 82% 0.0 mm CLR
23:30 12.1 °C 9.1 °C 1027.2 hPa NE 10.0 km/h 13.0 km/h 82% 0.0 mm CLR
23:35 12.0 °C 9.0 °C 1027.2 hPa North 10.0 km/h 14.8 km/h 82% 0.0 mm CLR
23:40 12.0 °C 9.0 °C 1027.2 hPa NNE 8.4 km/h 14.8 km/h 82% 0.0 mm CLR
23:45 12.0 °C 9.0 °C 1027.2 hPa NNE 8.4 km/h 13.0 km/h 82% 0.0 mm CLR
23:50 11.9 °C 8.9 °C 1027.1 hPa NNE 8.7 km/h 11.1 km/h 82% 0.0 mm CLR
23:55 11.9 °C 8.9 °C 1027.1 hPa North 8.7 km/h 14.8 km/h 82% 0.0 mm CLR
Murcia-Puente Tocinos, España
Compliments of Weather Underground - 2.75 mb

La estación de MeteoMurcia.com, publica sus datos en los siguientes proyectos:

Weather Underground PWS IMURCIAP2 Meteoclimatic www.awekas.at

W3Counter
Web Analytics